Time;durP1;ratioP1;P1;durP2;ratioP2;P2;SDS_P1;SDS_P2;PMS_P1;PMS_P2;Temp;Humidity;BMP_temperature;BMP_pressure;BME280_temperature;BME280_humidity;BME280_pressure;Samples;Min_cycle;Max_cycle;Signal;HPM_P1;HPM_P2
2021/07/18 00:00:29;;;;;;;20.38;13.88;;;;;;;;;;5054696;28;20033;-72
2021/07/18 00:02:54;;;;;;;18.02;12.25;;;;;;;;;;5065869;28;20028;-72
2021/07/18 00:05:20;;;;;;;16.63;11.23;;;;;;;;;;5066133;28;20028;-72
2021/07/18 00:07:45;;;;;;;14.60;10.48;;;;;;;;;;5051073;28;20086;-72
2021/07/18 00:10:11;;;;;;;14.10;10.20;;;;;;;;;;5051229;28;20031;-72
2021/07/18 00:12:37;;;;;;;10.93;7.93;;;;;;;;;;5051570;28;20043;-72
2021/07/18 00:15:05;;;;;;;10.23;8.07;;;;;;;;;;5068423;28;20379;-73
2021/07/18 00:17:36;;;;;;;11.82;7.30;;;;;;;;;;5087685;28;20489;-72
2021/07/18 00:20:06;;;;;;;8.95;6.07;;;;;;;;;;5088593;28;20107;-72
2021/07/18 00:22:31;;;;;;;10.00;5.78;;;;;;;;;;5052536;28;20481;-71
2021/07/18 00:24:57;;;;;;;9.45;5.40;;;;;;;;;;5068690;28;20043;-71
2021/07/18 00:27:22;;;;;;;8.30;5.35;;;;;;;;;;5050667;28;20025;-70
2021/07/18 00:29:48;;;;;;;9.25;5.40;;;;;;;;;;5050725;28;20029;-71
2021/07/18 00:32:13;;;;;;;7.60;4.97;;;;;;;;;;5064558;28;20040;-71
2021/07/18 00:34:39;;;;;;;8.82;5.05;;;;;;;;;;5070876;28;20490;-71
2021/07/18 00:37:04;;;;;;;11.32;4.97;;;;;;;;;;5059512;28;20567;-70
2021/07/18 00:39:30;;;;;;;7.43;4.97;;;;;;;;;;5071849;28;20025;-71
2021/07/18 00:41:55;;;;;;;8.68;5.18;;;;;;;;;;5070410;28;20074;-70
2021/07/18 00:44:21;;;;;;;6.28;4.53;;;;;;;;;;5069311;28;20021;-70
2021/07/18 00:46:46;;;;;;;9.45;5.15;;;;;;;;;;5070439;28;20111;-70
2021/07/18 00:49:12;;;;;;;7.15;4.72;;;;;;;;;;5068849;28;20032;-71
2021/07/18 00:51:37;;;;;;;8.48;5.28;;;;;;;;;;5052630;28;20025;-71
2021/07/18 00:54:03;;;;;;;8.73;4.78;;;;;;;;;;5050642;28;20124;-71
2021/07/18 00:56:29;;;;;;;8.52;5.03;;;;;;;;;;5050985;28;20486;-71
2021/07/18 00:58:57;;;;;;;7.55;4.93;;;;;;;;;;5059043;28;20021;-71
2021/07/18 01:01:23;;;;;;;9.52;4.88;;;;;;;;;;5050789;28;20083;-70
2021/07/18 01:03:49;;;;;;;7.15;5.00;;;;;;;;;;5050439;28;20029;-71
2021/07/18 01:06:14;;;;;;;7.00;4.90;;;;;;;;;;5050638;28;20040;-72
2021/07/18 01:08:39;;;;;;;10.30;5.03;;;;;;;;;;5053919;28;20497;-71
2021/07/18 01:11:05;;;;;;;7.93;4.80;;;;;;;;;;5070428;28;20507;-72
2021/07/18 01:13:31;;;;;;;7.72;4.10;;;;;;;;;;5067444;28;20112;-72
2021/07/18 01:15:56;;;;;;;9.43;4.93;;;;;;;;;;5075255;28;20055;-71
2021/07/18 01:18:22;;;;;;;7.43;4.70;;;;;;;;;;5068379;28;20059;-71
2021/07/18 01:20:48;;;;;;;7.32;4.63;;;;;;;;;;5071287;28;20039;-71
2021/07/18 01:23:15;;;;;;;7.53;4.55;;;;;;;;;;5071252;28;20055;-72
2021/07/18 01:25:41;;;;;;;7.25;4.45;;;;;;;;;;5066372;28;20107;-72
2021/07/18 01:28:09;;;;;;;10.82;5.18;;;;;;;;;;5053618;28;20103;-72
2021/07/18 01:30:34;;;;;;;6.20;4.30;;;;;;;;;;5053988;28;20053;-71
2021/07/18 01:33:00;;;;;;;8.77;5.18;;;;;;;;;;5070157;28;20110;-71
2021/07/18 01:35:27;;;;;;;9.25;4.75;;;;;;;;;;5068170;28;20491;-71
2021/07/18 01:37:52;;;;;;;9.57;4.47;;;;;;;;;;5060634;28;20031;-71
2021/07/18 01:40:18;;;;;;;8.45;4.93;;;;;;;;;;5084902;28;20353;-71
2021/07/18 01:42:43;;;;;;;6.80;4.35;;;;;;;;;;5055158;28;20052;-72
2021/07/18 01:45:10;;;;;;;8.00;4.32;;;;;;;;;;5053457;28;20496;-72
2021/07/18 01:47:35;;;;;;;7.60;3.97;;;;;;;;;;5053459;28;20111;-72
2021/07/18 01:50:04;;;;;;;8.18;4.15;;;;;;;;;;5054342;28;20140;-71
2021/07/18 01:52:30;;;;;;;7.88;4.30;;;;;;;;;;5053988;28;20102;-71
2021/07/18 01:54:55;;;;;;;6.32;3.92;;;;;;;;;;5062374;28;20472;-71
2021/07/18 01:57:21;;;;;;;6.63;4.03;;;;;;;;;;5068837;28;20478;-71
2021/07/18 01:59:46;;;;;;;8.93;3.70;;;;;;;;;;5065976;28;20028;-70
2021/07/18 02:02:14;;;;;;;6.38;4.03;;;;;;;;;;5063010;28;20025;-70
2021/07/18 02:04:39;;;;;;;6.75;3.83;;;;;;;;;;5056381;28;20067;-71
2021/07/18 02:07:05;;;;;;;6.45;4.00;;;;;;;;;;5072928;28;20483;-71
2021/07/18 02:09:37;;;;;;;8.32;4.13;;;;;;;;;;5070014;28;20042;-72
2021/07/18 02:12:07;;;;;;;6.85;4.25;;;;;;;;;;5073178;28;20554;-71
2021/07/18 02:14:35;;;;;;;6.70;4.05;;;;;;;;;;5068605;28;20016;-72
2021/07/18 02:17:00;;;;;;;9.35;4.47;;;;;;;;;;5086908;28;20039;-72
2021/07/18 02:19:29;;;;;;;7.43;4.25;;;;;;;;;;5075885;28;20024;-72
2021/07/18 02:21:56;;;;;;;8.00;3.80;;;;;;;;;;5069854;28;20064;-72
2021/07/18 02:24:22;;;;;;;6.90;4.07;;;;;;;;;;5052738;28;20072;-72
2021/07/18 02:26:47;;;;;;;5.82;4.18;;;;;;;;;;5053388;28;20123;-71
2021/07/18 02:29:13;;;;;;;9.18;4.45;;;;;;;;;;5052625;28;20112;-71
2021/07/18 02:31:40;;;;;;;7.05;4.25;;;;;;;;;;5069014;28;20025;-71
2021/07/18 02:34:05;;;;;;;8.02;4.10;;;;;;;;;;5072130;28;20028;-71
2021/07/18 02:36:32;;;;;;;7.63;4.10;;;;;;;;;;5054580;28;20300;-72
2021/07/18 02:38:58;;;;;;;6.97;4.00;;;;;;;;;;5077341;28;20039;-71
2021/07/18 02:41:24;;;;;;;7.35;3.95;;;;;;;;;;5092667;28;20028;-71
2021/07/18 02:43:50;;;;;;;7.97;4.60;;;;;;;;;;5076235;28;20023;-71
2021/07/18 02:46:15;;;;;;;7.53;4.10;;;;;;;;;;5069507;28;20033;-71
2021/07/18 02:48:41;;;;;;;6.57;4.10;;;;;;;;;;5065076;28;20452;-71
2021/07/18 02:51:06;;;;;;;7.70;4.32;;;;;;;;;;5072427;28;20031;-70
2021/07/18 02:53:32;;;;;;;6.38;4.18;;;;;;;;;;5067195;28;20029;-71
2021/07/18 02:55:58;;;;;;;5.85;3.88;;;;;;;;;;5051368;28;20033;-71
2021/07/18 02:58:23;;;;;;;7.97;3.60;;;;;;;;;;5058891;28;20036;-71
2021/07/18 03:00:49;;;;;;;6.97;3.80;;;;;;;;;;5071548;28;20104;-71
2021/07/18 03:03:15;;;;;;;7.13;3.85;;;;;;;;;;5057041;28;20465;-71
2021/07/18 03:05:40;;;;;;;6.63;3.55;;;;;;;;;;5069822;28;20039;-71
2021/07/18 03:08:08;;;;;;;6.60;4.28;;;;;;;;;;5070690;28;20028;-72
2021/07/18 03:10:33;;;;;;;6.55;3.85;;;;;;;;;;5069752;28;20111;-72
2021/07/18 03:12:59;;;;;;;6.00;3.70;;;;;;;;;;5070515;28;20103;-72
2021/07/18 03:15:24;;;;;;;6.35;3.97;;;;;;;;;;5069963;28;20490;-72
2021/07/18 03:17:50;;;;;;;6.00;3.80;;;;;;;;;;5069332;28;20025;-72
2021/07/18 03:20:17;;;;;;;6.07;3.40;;;;;;;;;;5070216;28;20029;-71
2021/07/18 03:22:44;;;;;;;6.13;3.65;;;;;;;;;;5071820;28;20084;-71
2021/07/18 03:25:11;;;;;;;9.25;4.00;;;;;;;;;;5068604;28;20499;-71
2021/07/18 03:27:37;;;;;;;8.27;3.83;;;;;;;;;;5065656;28;20028;-70
2021/07/18 03:30:06;;;;;;;7.93;4.10;;;;;;;;;;5051654;28;20021;-70
2021/07/18 03:32:32;;;;;;;11.13;3.83;;;;;;;;;;5051378;28;20179;-70
2021/07/18 03:34:58;;;;;;;10.45;3.80;;;;;;;;;;5062332;28;20115;-71
2021/07/18 03:37:23;;;;;;;9.55;3.50;;;;;;;;;;5060801;28;20055;-70
2021/07/18 03:39:49;;;;;;;7.65;3.40;;;;;;;;;;5060028;28;20109;-70
2021/07/18 03:42:14;;;;;;;6.03;3.65;;;;;;;;;;5056349;28;20025;-70
2021/07/18 03:44:40;;;;;;;8.75;3.60;;;;;;;;;;5050864;28;20021;-71
2021/07/18 03:47:06;;;;;;;9.73;3.90;;;;;;;;;;5051572;28;20021;-70
2021/07/18 03:49:33;;;;;;;11.60;3.75;;;;;;;;;;5067110;28;20040;-70
2021/07/18 03:51:59;;;;;;;5.85;3.72;;;;;;;;;;5056501;28;20472;-71
2021/07/18 03:54:24;;;;;;;7.10;3.42;;;;;;;;;;5056918;28;20484;-71
2021/07/18 03:56:50;;;;;;;7.35;3.50;;;;;;;;;;5071294;28;20048;-70
2021/07/18 03:59:15;;;;;;;7.85;3.28;;;;;;;;;;5064915;28;20059;-72
2021/07/18 04:01:41;;;;;;;8.80;3.15;;;;;;;;;;5068488;28;20029;-72
2021/07/18 04:04:06;;;;;;;7.40;3.40;;;;;;;;;;5070405;28;20028;-71
2021/07/18 04:06:32;;;;;;;6.85;3.42;;;;;;;;;;5068889;28;20491;-71
2021/07/18 04:08:57;;;;;;;10.68;3.72;;;;;;;;;;5053858;28;20473;-71
2021/07/18 04:11:23;;;;;;;8.20;3.50;;;;;;;;;;5058747;28;20024;-71
2021/07/18 04:13:48;;;;;;;7.05;3.33;;;;;;;;;;5069206;28;20471;-71
2021/07/18 04:16:14;;;;;;;5.63;2.83;;;;;;;;;;5058955;28;20112;-71
2021/07/18 04:18:40;;;;;;;8.25;3.38;;;;;;;;;;5070885;28;20494;-71
2021/07/18 04:21:05;;;;;;;8.80;3.20;;;;;;;;;;5070974;28;20020;-70
2021/07/18 04:23:30;;;;;;;6.82;3.17;;;;;;;;;;5070001;28;20029;-70
2021/07/18 04:25:56;;;;;;;9.80;3.15;;;;;;;;;;5053328;28;20530;-71
2021/07/18 04:28:22;;;;;;;6.95;3.10;;;;;;;;;;5050713;28;20380;-71
2021/07/18 04:30:48;;;;;;;6.57;2.88;;;;;;;;;;5050789;28;20028;-70
2021/07/18 04:33:13;;;;;;;6.18;3.00;;;;;;;;;;5051033;28;20498;-71
2021/07/18 04:35:39;;;;;;;8.38;2.75;;;;;;;;;;5051582;28;20025;-71
2021/07/18 04:38:06;;;;;;;6.13;3.35;;;;;;;;;;5070108;28;20027;-69
2021/07/18 04:40:32;;;;;;;7.43;2.90;;;;;;;;;;5090729;28;20020;-70
2021/07/18 04:42:58;;;;;;;7.65;2.92;;;;;;;;;;5090905;28;20463;-70
2021/07/18 04:45:24;;;;;;;8.15;2.92;;;;;;;;;;5056207;28;20037;-70
2021/07/18 04:47:57;;;;;;;9.23;3.15;;;;;;;;;;5050581;28;20033;-71
2021/07/18 04:50:25;;;;;;;8.23;3.03;;;;;;;;;;5050928;28;20103;-71
2021/07/18 04:52:50;;;;;;;8.80;3.08;;;;;;;;;;5050483;28;20036;-70
2021/07/18 04:55:17;;;;;;;6.25;2.80;;;;;;;;;;5050784;28;20036;-70
2021/07/18 04:57:42;;;;;;;10.70;3.22;;;;;;;;;;5066819;28;20479;-71
2021/07/18 05:00:13;;;;;;;8.30;2.90;;;;;;;;;;5068322;28;20025;-71
2021/07/18 05:02:39;;;;;;;5.60;2.88;;;;;;;;;;5054113;28;20021;-70
2021/07/18 05:05:07;;;;;;;8.65;2.72;;;;;;;;;;5057765;28;20357;-70
2021/07/18 05:07:32;;;;;;;6.75;2.28;;;;;;;;;;5061709;28;20038;-71
2021/07/18 05:09:58;;;;;;;10.13;2.90;;;;;;;;;;5074476;28;20020;-70
2021/07/18 05:12:23;;;;;;;8.35;2.92;;;;;;;;;;5073959;28;20426;-70
2021/07/18 05:14:49;;;;;;;6.47;2.83;;;;;;;;;;5073145;28;20035;-71
2021/07/18 05:17:15;;;;;;;6.50;2.88;;;;;;;;;;5080331;28;20047;-71
2021/07/18 05:19:41;;;;;;;6.95;2.90;;;;;;;;;;5054072;28;20029;-70
2021/07/18 05:22:08;;;;;;;7.38;2.80;;;;;;;;;;5054227;28;20020;-71
2021/07/18 05:24:33;;;;;;;8.10;2.83;;;;;;;;;;5054173;28;20021;-70
2021/07/18 05:26:59;;;;;;;7.68;2.67;;;;;;;;;;5054016;28;20036;-71
2021/07/18 05:29:25;;;;;;;8.18;2.80;;;;;;;;;;5053669;28;20037;-70
2021/07/18 05:31:50;;;;;;;7.03;2.40;;;;;;;;;;5054212;28;20433;-70
2021/07/18 05:34:16;;;;;;;8.40;2.70;;;;;;;;;;5059322;28;20357;-71
2021/07/18 05:36:42;;;;;;;9.75;2.65;;;;;;;;;;5073200;28;20504;-69
2021/07/18 05:39:07;;;;;;;7.20;2.30;;;;;;;;;;5087580;28;20419;-70
2021/07/18 05:41:33;;;;;;;7.07;2.25;;;;;;;;;;5093870;28;20042;-70
2021/07/18 05:43:58;;;;;;;8.32;2.72;;;;;;;;;;5084758;28;20100;-71
2021/07/18 05:46:24;;;;;;;10.23;2.50;;;;;;;;;;5057289;28;20550;-69
2021/07/18 05:48:50;;;;;;;16.02;3.40;;;;;;;;;;5073399;28;20091;-70
2021/07/18 05:51:15;;;;;;;7.43;2.50;;;;;;;;;;5070561;28;20032;-70
2021/07/18 05:53:40;;;;;;;8.45;2.45;;;;;;;;;;5072930;28;20419;-69
2021/07/18 05:56:06;;;;;;;9.50;2.17;;;;;;;;;;5057541;28;20017;-73
2021/07/18 05:58:31;;;;;;;8.43;2.63;;;;;;;;;;5053923;28;20118;-71
2021/07/18 06:00:57;;;;;;;9.50;2.47;;;;;;;;;;5056032;28;20389;-69
2021/07/18 06:03:22;;;;;;;7.22;2.50;;;;;;;;;;5068703;28;20047;-69
2021/07/18 06:05:48;;;;;;;8.77;2.30;;;;;;;;;;5073090;28;20032;-70
2021/07/18 06:08:14;;;;;;;8.18;2.38;;;;;;;;;;5060196;28;20029;-70
2021/07/18 06:10:39;;;;;;;5.95;2.17;;;;;;;;;;5063692;28;20475;-72
2021/07/18 06:13:05;;;;;;;7.68;1.90;;;;;;;;;;5073015;28;20020;-71
2021/07/18 06:15:31;;;;;;;12.68;2.90;;;;;;;;;;5074606;28;20024;-71
2021/07/18 06:17:57;;;;;;;7.25;2.10;;;;;;;;;;5081812;28;20028;-71
2021/07/18 06:20:22;;;;;;;8.93;2.30;;;;;;;;;;5065072;28;20029;-70
2021/07/18 06:22:48;;;;;;;5.95;2.40;;;;;;;;;;5052917;28;20375;-71
2021/07/18 06:25:14;;;;;;;7.00;2.20;;;;;;;;;;5069050;28;20116;-72
2021/07/18 06:27:41;;;;;;;6.22;2.10;;;;;;;;;;5065462;28;20024;-71
2021/07/18 06:30:08;;;;;;;8.18;1.92;;;;;;;;;;5058324;28;20017;-71
2021/07/18 06:32:34;;;;;;;5.70;2.10;;;;;;;;;;5072662;28;20051;-72
2021/07/18 06:34:59;;;;;;;5.03;2.05;;;;;;;;;;5072859;28;20407;-70
2021/07/18 06:37:25;;;;;;;7.70;2.45;;;;;;;;;;5062471;28;20040;-70
2021/07/18 06:39:53;;;;;;;10.27;2.35;;;;;;;;;;5052949;28;20380;-71
2021/07/18 06:42:20;;;;;;;6.13;2.15;;;;;;;;;;5052559;28;20017;-71
2021/07/18 06:44:46;;;;;;;5.93;2.20;;;;;;;;;;5058557;28;20060;-72
2021/07/18 06:47:12;;;;;;;6.30;2.10;;;;;;;;;;5072549;28;20472;-70
2021/07/18 06:49:38;;;;;;;9.05;2.13;;;;;;;;;;5071786;28;20040;-69
2021/07/18 06:52:03;;;;;;;8.73;2.60;;;;;;;;;;5070161;28;20051;-71
2021/07/18 06:54:29;;;;;;;12.23;2.65;;;;;;;;;;5070536;28;20016;-70
2021/07/18 06:56:54;;;;;;;5.50;2.35;;;;;;;;;;5072405;28;20027;-70
2021/07/18 06:59:20;;;;;;;6.20;2.72;;;;;;;;;;5072230;28;20503;-71
2021/07/18 07:01:46;;;;;;;7.68;2.03;;;;;;;;;;5066640;28;20078;-71
2021/07/18 07:04:11;;;;;;;10.60;2.80;;;;;;;;;;5069317;28;20097;-71
2021/07/18 07:06:37;;;;;;;6.05;1.88;;;;;;;;;;5064057;28;20111;-71
2021/07/18 07:09:03;;;;;;;6.80;2.13;;;;;;;;;;5072062;28;20105;-71
2021/07/18 07:11:28;;;;;;;10.20;2.17;;;;;;;;;;5060847;28;20024;-70
2021/07/18 07:13:54;;;;;;;7.80;1.98;;;;;;;;;;5051994;28;20469;-69
2021/07/18 07:16:19;;;;;;;8.55;2.58;;;;;;;;;;5068782;28;20110;-71
2021/07/18 07:18:46;;;;;;;5.22;2.30;;;;;;;;;;5088179;28;20102;-70
2021/07/18 07:21:13;;;;;;;7.75;1.90;;;;;;;;;;5059833;28;20029;-72
2021/07/18 07:23:39;;;;;;;6.72;2.00;;;;;;;;;;5063366;28;20024;-70
2021/07/18 07:26:05;;;;;;;5.78;1.90;;;;;;;;;;5071689;28;20446;-70
2021/07/18 07:28:31;;;;;;;6.38;2.35;;;;;;;;;;5052819;28;20021;-71
2021/07/18 07:30:58;;;;;;;7.40;1.77;;;;;;;;;;5052027;28;20112;-72
2021/07/18 07:33:24;;;;;;;5.68;2.10;;;;;;;;;;5051380;28;20071;-70
2021/07/18 07:35:51;;;;;;;4.97;1.90;;;;;;;;;;5065881;28;20052;-70
2021/07/18 07:38:17;;;;;;;5.40;2.10;;;;;;;;;;5078186;28;20048;-71
2021/07/18 07:40:45;;;;;;;7.95;2.58;;;;;;;;;;5084503;28;20103;-72
2021/07/18 07:43:11;;;;;;;8.50;2.20;;;;;;;;;;5060026;28;20457;-70
2021/07/18 07:45:36;;;;;;;6.00;2.00;;;;;;;;;;5071056;28;20096;-70
2021/07/18 07:48:03;;;;;;;4.57;1.75;;;;;;;;;;5071198;28;20139;-71
2021/07/18 07:50:28;;;;;;;4.78;1.70;;;;;;;;;;5067258;28;20063;-71
2021/07/18 07:52:53;;;;;;;6.55;2.10;;;;;;;;;;5052616;28;20422;-70
2021/07/18 07:55:19;;;;;;;5.90;1.85;;;;;;;;;;5051332;28;20025;-72
2021/07/18 07:57:45;;;;;;;9.05;2.13;;;;;;;;;;5051110;28;20025;-71
2021/07/18 08:00:13;;;;;;;7.85;2.47;;;;;;;;;;5051253;28;20344;-71
2021/07/18 08:02:39;;;;;;;7.63;2.10;;;;;;;;;;5059928;28;20024;-69
2021/07/18 08:05:06;;;;;;;7.10;1.92;;;;;;;;;;5058666;28;20040;-70
2021/07/18 08:07:31;;;;;;;8.98;2.80;;;;;;;;;;5051610;28;20036;-69
2021/07/18 08:09:58;;;;;;;6.30;2.40;;;;;;;;;;5061832;28;20387;-71
2021/07/18 08:12:23;;;;;;;5.75;2.05;;;;;;;;;;5060064;28;20033;-72
2021/07/18 08:14:49;;;;;;;4.60;1.85;;;;;;;;;;5069585;28;20028;-70
2021/07/18 08:17:15;;;;;;;4.38;1.90;;;;;;;;;;5053570;28;20087;-70
2021/07/18 08:19:41;;;;;;;4.65;1.73;;;;;;;;;;5070232;28;20033;-71
2021/07/18 08:22:08;;;;;;;6.78;1.92;;;;;;;;;;5070229;28;20028;-71
2021/07/18 08:24:34;;;;;;;5.07;2.30;;;;;;;;;;5070855;28;20085;-70
2021/07/18 08:26:59;;;;;;;8.13;2.00;;;;;;;;;;5068691;28;20033;-69
2021/07/18 08:29:26;;;;;;;8.38;2.38;;;;;;;;;;5052442;28;20123;-71
2021/07/18 08:31:56;;;;;;;8.65;2.47;;;;;;;;;;5062259;28;20033;-71
2021/07/18 08:34:23;;;;;;;3.95;1.92;;;;;;;;;;5057447;28;20032;-71
2021/07/18 08:36:48;;;;;;;8.93;2.00;;;;;;;;;;5060660;28;20028;-71
2021/07/18 08:39:14;;;;;;;3.72;1.90;;;;;;;;;;5087682;28;20035;-70
2021/07/18 08:41:43;;;;;;;5.65;1.60;;;;;;;;;;5080921;28;20021;-70
2021/07/18 08:44:14;;;;;;;7.30;2.38;;;;;;;;;;5072735;28;20024;-69
2021/07/18 08:46:41;;;;;;;4.40;2.00;;;;;;;;;;5058359;28;20046;-70
2021/07/18 08:49:08;;;;;;;8.15;2.22;;;;;;;;;;5057277;28;20041;-70
2021/07/18 08:51:34;;;;;;;4.95;1.88;;;;;;;;;;5059776;28;20361;-71
2021/07/18 08:54:00;;;;;;;5.15;1.95;;;;;;;;;;5071326;28;20418;-71
2021/07/18 08:56:29;;;;;;;6.85;2.05;;;;;;;;;;5060000;28;20024;-70
2021/07/18 08:58:54;;;;;;;7.00;2.38;;;;;;;;;;5073903;28;20028;-70
2021/07/18 09:01:20;;;;;;;6.22;1.70;;;;;;;;;;5073035;28;20090;-71
2021/07/18 09:03:47;;;;;;;5.90;2.00;;;;;;;;;;5063506;28;20456;-71
2021/07/18 09:06:13;;;;;;;6.75;2.15;;;;;;;;;;5074184;28;20043;-72
2021/07/18 09:08:49;;;;;;;7.65;2.50;;;;;;;;;;5075908;28;20452;-70
2021/07/18 09:11:25;;;;;;;9.07;2.22;;;;;;;;;;5077201;28;20093;-71
2021/07/18 09:13:58;;;;;;;6.05;1.90;;;;;;;;;;5072345;28;20384;-71
2021/07/18 09:16:30;;;;;;;8.30;2.40;;;;;;;;;;5068250;28;20032;-70
2021/07/18 09:19:14;;;;;;;6.90;2.28;;;;;;;;;;5059082;28;20036;-71
2021/07/18 09:21:40;;;;;;;7.72;2.33;;;;;;;;;;5058493;28;20056;-71
2021/07/18 09:24:18;;;;;;;4.70;1.90;;;;;;;;;;5072269;28;20058;-70
2021/07/18 09:26:43;;;;;;;6.97;1.80;;;;;;;;;;5078432;28;20414;-70
2021/07/18 09:29:25;;;;;;;4.60;2.05;;;;;;;;;;5065657;28;20024;-71
2021/07/18 09:32:04;;;;;;;6.30;1.90;;;;;;;;;;5072131;28;20435;-71
2021/07/18 09:34:49;;;;;;;6.32;2.10;;;;;;;;;;5063996;28;20029;-72
2021/07/18 09:37:30;;;;;;;4.13;1.17;;;;;;;;;;5061420;28;20028;-71
2021/07/18 09:39:57;;;;;;;3.53;1.42;;;;;;;;;;5058138;28;20116;-71
2021/07/18 09:42:30;;;;;;;4.15;1.88;;;;;;;;;;5056514;28;20411;-72
2021/07/18 09:44:55;;;;;;;5.28;1.77;;;;;;;;;;5055510;28;20033;-73
2021/07/18 09:47:21;;;;;;;5.63;2.22;;;;;;;;;;5063873;28;20029;-72
2021/07/18 09:49:48;;;;;;;5.68;1.80;;;;;;;;;;5067536;28;20044;-70
2021/07/18 09:52:26;;;;;;;4.60;1.83;;;;;;;;;;5069402;28;20032;-72
2021/07/18 09:54:56;;;;;;;6.90;2.15;;;;;;;;;;5065332;28;20040;-70
2021/07/18 09:57:32;;;;;;;6.88;2.15;;;;;;;;;;5058241;28;20463;-73
2021/07/18 09:59:58;;;;;;;5.47;2.33;;;;;;;;;;5058551;28;20033;-73
2021/07/18 10:02:29;;;;;;;7.40;2.20;;;;;;;;;;5058924;28;20104;-72
2021/07/18 10:04:55;;;;;;;4.90;1.67;;;;;;;;;;5063574;28;20032;-71
2021/07/18 10:07:32;;;;;;;6.50;1.77;;;;;;;;;;5065922;28;20463;-73
2021/07/18 10:09:58;;;;;;;4.68;1.90;;;;;;;;;;5067214;28;20376;-73
2021/07/18 10:12:25;;;;;;;4.38;1.60;;;;;;;;;;5069313;28;20027;-73
2021/07/18 10:14:51;;;;;;;4.85;1.65;;;;;;;;;;5062335;28;20087;-72
2021/07/18 10:17:18;;;;;;;4.40;1.58;;;;;;;;;;5068981;28;20024;-71
2021/07/18 10:19:44;;;;;;;3.95;1.17;;;;;;;;;;5070433;28;20117;-72
2021/07/18 10:22:10;;;;;;;3.40;1.27;;;;;;;;;;5061844;28;20032;-72
2021/07/18 10:24:37;;;;;;;5.30;1.48;;;;;;;;;;5075044;28;20380;-71
2021/07/18 10:27:04;;;;;;;3.90;1.50;;;;;;;;;;5072172;28;20341;-71
2021/07/18 10:29:32;;;;;;;4.35;1.80;;;;;;;;;;5073829;28;20061;-72
2021/07/18 10:32:03;;;;;;;5.80;1.70;;;;;;;;;;5065121;28;20071;-70
2021/07/18 10:34:31;;;;;;;2.53;1.20;;;;;;;;;;5067287;28;20112;-73
2021/07/18 10:36:56;;;;;;;4.75;1.50;;;;;;;;;;5073151;28;20025;-72
2021/07/18 10:39:32;;;;;;;4.97;1.80;;;;;;;;;;5064583;28;20502;-72
2021/07/18 10:41:59;;;;;;;5.25;1.77;;;;;;;;;;5068275;28;20032;-72
2021/07/18 10:44:38;;;;;;;2.53;1.23;;;;;;;;;;5067602;28;20158;-72
2021/07/18 10:47:04;;;;;;;4.07;1.67;;;;;;;;;;5055426;28;20067;-71
2021/07/18 10:50:00;;;;;;;4.00;1.58;;;;;;;;;;5054125;28;20044;-72
2021/07/18 10:52:34;;;;;;;3.10;1.63;;;;;;;;;;5044676;28;20090;-72
2021/07/18 10:55:20;;;;;;;4.60;1.40;;;;;;;;;;5064604;28;20115;-74
2021/07/18 10:57:49;;;;;;;8.07;1.40;;;;;;;;;;5066715;28;20490;-72
2021/07/18 11:00:25;;;;;;;5.15;1.40;;;;;;;;;;5070615;28;20032;-72
2021/07/18 11:03:32;;;;;;;4.07;1.80;;;;;;;;;;5072689;28;20474;-73
2021/07/18 11:06:23;;;;;;;4.65;1.63;;;;;;;;;;5066718;28;20089;-73
2021/07/18 11:09:21;;;;;;;4.47;2.08;;;;;;;;;;5073373;28;20478;-73
2021/07/18 11:11:57;;;;;;;4.68;2.08;;;;;;;;;;5073371;28;20024;-73
2021/07/18 11:14:35;;;;;;;5.20;1.58;;;;;;;;;;5073486;28;20025;-74
2021/07/18 11:17:28;;;;;;;4.50;2.00;;;;;;;;;;5087249;28;20446;-72
2021/07/18 11:20:01;;;;;;;5.93;2.10;;;;;;;;;;5065666;28;20096;-73
2021/07/18 11:23:00;;;;;;;8.20;2.40;;;;;;;;;;5058838;28;20447;-73
2021/07/18 11:25:59;;;;;;;6.03;2.47;;;;;;;;;;5083708;28;20440;-73
2021/07/18 11:28:27;;;;;;;4.93;1.80;;;;;;;;;;5063146;28;20033;-73
2021/07/18 11:31:13;;;;;;;6.55;2.08;;;;;;;;;;5057135;28;20025;-71
2021/07/18 11:33:44;;;;;;;5.30;2.58;;;;;;;;;;5063422;28;20543;-73
2021/07/18 11:36:40;;;;;;;5.35;2.45;;;;;;;;;;5064101;28;20048;-69
2021/07/18 11:39:13;;;;;;;5.22;2.08;;;;;;;;;;5066949;28;20036;-72
2021/07/18 11:41:39;;;;;;;4.63;1.83;;;;;;;;;;5066066;28;20099;-72
2021/07/18 11:44:05;;;;;;;5.03;1.80;;;;;;;;;;5053931;28;20048;-72
2021/07/18 11:46:33;;;;;;;3.83;1.80;;;;;;;;;;5051162;28;20036;-71
2021/07/18 11:49:01;;;;;;;3.63;1.90;;;;;;;;;;5052085;28;20099;-70
2021/07/18 11:51:29;;;;;;;4.75;2.20;;;;;;;;;;5052715;28;20039;-70
2021/07/18 11:53:57;;;;;;;7.28;2.42;;;;;;;;;;5064579;28;20107;-71
2021/07/18 11:56:23;;;;;;;8.68;2.30;;;;;;;;;;5057961;28;20073;-72
2021/07/18 11:58:50;;;;;;;4.05;1.98;;;;;;;;;;5051137;28;20502;-72
2021/07/18 12:01:27;;;;;;;8.13;2.55;;;;;;;;;;5062791;28;20528;-70
2021/07/18 12:03:53;;;;;;;3.67;2.10;;;;;;;;;;5064435;28;20031;-74
2021/07/18 12:06:20;;;;;;;6.28;1.83;;;;;;;;;;5061549;28;20025;-73
2021/07/18 12:08:46;;;;;;;5.13;1.90;;;;;;;;;;5052834;28;20387;-73
2021/07/18 12:11:15;;;;;;;5.25;2.08;;;;;;;;;;5060585;28;20024;-72
2021/07/18 12:13:44;;;;;;;4.82;1.92;;;;;;;;;;5067317;28;20069;-73
2021/07/18 12:16:10;;;;;;;5.40;2.10;;;;;;;;;;5063379;28;20024;-73
2021/07/18 12:18:48;;;;;;;3.85;1.80;;;;;;;;;;5063768;28;20028;-72
2021/07/18 12:21:18;;;;;;;5.60;2.03;;;;;;;;;;5060070;28;20388;-73
2021/07/18 12:23:43;;;;;;;4.80;1.77;;;;;;;;;;5069277;28;20025;-73
2021/07/18 12:26:09;;;;;;;5.05;2.10;;;;;;;;;;5070926;28;20031;-72
2021/07/18 12:28:34;;;;;;;3.90;1.83;;;;;;;;;;5053075;28;20017;-73
2021/07/18 12:31:06;;;;;;;5.03;1.83;;;;;;;;;;5062439;28;20541;-74
2021/07/18 12:33:33;;;;;;;4.65;2.47;;;;;;;;;;5070303;28;20032;-73
2021/07/18 12:36:04;;;;;;;4.50;2.08;;;;;;;;;;5070330;28;20032;-73
2021/07/18 12:38:29;;;;;;;3.50;1.90;;;;;;;;;;5070104;28;20481;-72
2021/07/18 12:41:02;;;;;;;6.03;2.08;;;;;;;;;;5054097;28;20016;-73
2021/07/18 12:43:31;;;;;;;4.35;1.90;;;;;;;;;;5052099;28;20033;-72
2021/07/18 12:45:56;;;;;;;4.72;1.85;;;;;;;;;;5057037;28;20032;-73
2021/07/18 12:48:23;;;;;;;4.68;1.85;;;;;;;;;;5070556;28;20535;-72
2021/07/18 12:50:50;;;;;;;6.90;1.73;;;;;;;;;;5066112;28;20454;-71
2021/07/18 12:53:17;;;;;;;5.07;2.00;;;;;;;;;;5050688;28;20111;-74
2021/07/18 12:55:45;;;;;;;3.97;2.00;;;;;;;;;;5063418;28;20361;-73
2021/07/18 12:58:14;;;;;;;6.93;2.00;;;;;;;;;;5070167;28;20446;-73
2021/07/18 13:00:40;;;;;;;5.68;2.10;;;;;;;;;;5068599;28;20471;-71
2021/07/18 13:03:12;;;;;;;3.88;1.95;;;;;;;;;;5052844;28;20025;-73
2021/07/18 13:05:42;;;;;;;4.78;1.83;;;;;;;;;;5050731;28;20029;-73
2021/07/18 13:08:08;;;;;;;3.58;1.77;;;;;;;;;;5062590;28;20469;-73
2021/07/18 13:10:53;;;;;;;4.35;1.70;;;;;;;;;;5070423;28;20154;-73
2021/07/18 13:13:29;;;;;;;4.57;1.80;;;;;;;;;;5070418;28;20025;-72
2021/07/18 13:16:09;;;;;;;4.43;1.90;;;;;;;;;;5075483;28;20051;-76
2021/07/18 13:18:38;;;;;;;3.28;1.65;;;;;;;;;;5094127;28;20106;-74
2021/07/18 13:21:15;;;;;;;4.85;1.75;;;;;;;;;;5094278;28;20035;-74
2021/07/18 13:23:45;;;;;;;4.40;1.75;;;;;;;;;;5094403;28;20027;-72
2021/07/18 13:26:31;;;;;;;4.95;1.95;;;;;;;;;;5079154;28;20048;-74
2021/07/18 13:29:19;;;;;;;3.03;1.50;;;;;;;;;;5074899;28;20047;-74
2021/07/18 13:31:47;;;;;;;4.75;1.95;;;;;;;;;;5073409;28;20024;-73
2021/07/18 13:34:14;;;;;;;5.15;2.25;;;;;;;;;;5062062;28;20032;-73
2021/07/18 13:36:41;;;;;;;2.97;1.73;;;;;;;;;;5053856;28;20103;-72
2021/07/18 13:39:14;;;;;;;4.13;1.80;;;;;;;;;;5065509;28;20024;-72
2021/07/18 13:41:59;;;;;;;5.22;1.85;;;;;;;;;;5073953;28;20019;-73
2021/07/18 13:44:25;;;;;;;5.75;1.70;;;;;;;;;;5060538;28;20154;-73
2021/07/18 13:46:50;;;;;;;4.45;1.80;;;;;;;;;;5074316;28;20033;-72
2021/07/18 13:49:15;;;;;;;6.03;1.90;;;;;;;;;;5074444;28;20037;-73
2021/07/18 13:51:41;;;;;;;4.22;1.77;;;;;;;;;;5074722;28;20655;-73
2021/07/18 13:54:06;;;;;;;3.25;1.95;;;;;;;;;;5073569;28;20064;-73
2021/07/18 13:56:32;;;;;;;4.82;1.75;;;;;;;;;;5073361;28;20031;-74
2021/07/18 13:58:57;;;;;;;2.97;1.80;;;;;;;;;;5073209;28;20034;-72
2021/07/18 14:01:23;;;;;;;4.15;1.70;;;;;;;;;;5073543;28;20024;-73
2021/07/18 14:03:48;;;;;;;5.07;1.90;;;;;;;;;;5073101;28;20484;-73
2021/07/18 14:06:13;;;;;;;5.10;1.70;;;;;;;;;;5073028;28;20020;-74
2021/07/18 14:08:39;;;;;;;5.25;1.75;;;;;;;;;;5068510;28;20324;-72
2021/07/18 14:11:04;;;;;;;4.60;1.98;;;;;;;;;;5070195;28;20027;-73
2021/07/18 14:13:30;;;;;;;2.80;1.58;;;;;;;;;;5073305;28;20471;-72
2021/07/18 14:15:56;;;;;;;5.90;1.95;;;;;;;;;;5079055;28;20363;-78
2021/07/18 14:18:21;;;;;;;4.45;2.00;;;;;;;;;;5093564;28;20111;-76
2021/07/18 14:20:47;;;;;;;4.43;1.90;;;;;;;;;;5093190;28;20596;-73
2021/07/18 14:23:13;;;;;;;2.60;1.60;;;;;;;;;;5067353;28;20029;-74
2021/07/18 14:25:39;;;;;;;3.20;1.67;;;;;;;;;;5063142;28;20031;-73
2021/07/18 14:28:08;;;;;;;2.92;1.73;;;;;;;;;;5069939;28;20089;-74
2021/07/18 14:30:34;;;;;;;2.75;1.65;;;;;;;;;;5073767;28;20021;-73
2021/07/18 14:33:00;;;;;;;4.68;1.80;;;;;;;;;;5067568;28;20031;-77
2021/07/18 14:35:27;;;;;;;4.22;1.92;;;;;;;;;;5053240;28;20379;-73
2021/07/18 14:37:53;;;;;;;5.63;1.65;;;;;;;;;;5059705;28;20327;-74
2021/07/18 14:40:20;;;;;;;3.13;1.75;;;;;;;;;;5060993;28;20104;-74
2021/07/18 14:42:47;;;;;;;4.28;1.67;;;;;;;;;;5067303;28;20028;-74
2021/07/18 14:45:15;;;;;;;3.67;1.80;;;;;;;;;;5058864;28;20025;-74
2021/07/18 14:47:42;;;;;;;3.13;1.60;;;;;;;;;;5061744;28;20058;-75